createdAt,value
2019-02-20T00:02:57.316Z,5.10
2019-02-20T00:08:01.268Z,4.53
2019-02-20T00:13:05.375Z,5.13
2019-02-20T00:18:09.228Z,5.70
2019-02-20T00:23:13.264Z,5.60
2019-02-20T00:28:17.223Z,5.27
2019-02-20T00:33:21.443Z,5.17
2019-02-20T00:38:25.397Z,6.23
2019-02-20T00:43:29.415Z,5.43
2019-02-20T00:48:47.188Z,5.30
2019-02-20T00:53:55.306Z,6.07
2019-02-20T00:58:59.270Z,5.90
2019-02-20T01:04:03.398Z,6.53
2019-02-20T01:09:08.051Z,6.63
2019-02-20T01:14:12.142Z,6.43
2019-02-20T01:19:16.040Z,6.90
2019-02-20T01:24:19.929Z,6.93
2019-02-20T01:29:23.788Z,8.17
2019-02-20T01:34:27.918Z,7.10
2019-02-20T01:39:32.132Z,7.50
2019-02-20T01:44:36.127Z,9.57
2019-02-20T01:49:40.091Z,8.57
2019-02-20T01:54:44.198Z,9.07
2019-02-20T01:59:48.086Z,9.03
2019-02-20T02:04:52.036Z,9.67
2019-02-20T02:09:56.030Z,10.23
2019-02-20T02:14:59.834Z,10.27
2019-02-20T02:20:03.642Z,10.50
2019-02-20T02:25:07.460Z,10.43
2019-02-20T02:30:12.306Z,9.77
2019-02-20T02:35:16.246Z,9.63
2019-02-20T02:40:20.061Z,10.07
2019-02-20T02:45:23.929Z,9.23
2019-02-20T02:50:27.874Z,9.93
2019-02-20T02:55:31.698Z,9.43
2019-02-20T03:00:35.526Z,10.10
2019-02-20T03:05:39.434Z,10.80
2019-02-20T03:10:43.598Z,10.57
2019-02-20T03:15:47.796Z,10.37
2019-02-20T03:20:51.608Z,9.97
2019-02-20T03:25:55.406Z,10.53
2019-02-20T03:30:59.325Z,10.07
2019-02-20T03:36:03.194Z,11.30
2019-02-20T03:41:06.982Z,11.13
2019-02-20T03:46:10.821Z,11.00
2019-02-20T03:51:14.659Z,11.67
2019-02-20T03:56:18.582Z,12.00
2019-02-20T04:01:22.400Z,11.10
2019-02-20T04:06:26.234Z,11.43
2019-02-20T04:11:30.083Z,11.13
2019-02-20T04:16:33.890Z,10.30
2019-02-20T04:21:37.787Z,11.37
2019-02-20T04:26:41.665Z,11.63
2019-02-20T04:31:45.666Z,11.03
2019-02-20T04:36:49.523Z,10.47
2019-02-20T04:41:53.337Z,10.83
2019-02-20T04:46:57.261Z,11.83
2019-02-20T04:52:01.194Z,11.77
2019-02-20T04:57:04.993Z,12.97
2019-02-20T05:02:08.815Z,11.57
2019-02-20T05:07:12.711Z,11.20
2019-02-20T05:12:16.646Z,11.73
2019-02-20T05:17:20.625Z,11.60
2019-02-20T05:22:24.470Z,10.30
2019-02-20T05:27:28.380Z,10.53
2019-02-20T05:32:32.279Z,11.57
2019-02-20T05:37:36.104Z,11.00
2019-02-20T05:42:39.968Z,11.20
2019-02-20T05:47:43.794Z,10.63
2019-02-20T05:52:47.611Z,10.70
2019-02-20T05:57:51.499Z,11.30
2019-02-20T06:02:55.350Z,10.83
2019-02-20T06:07:59.139Z,10.00
2019-02-20T06:13:02.960Z,10.73
2019-02-20T06:18:06.805Z,9.90
2019-02-20T06:23:10.602Z,10.20
2019-02-20T06:28:14.446Z,10.17
2019-02-20T06:33:18.343Z,9.07
2019-02-20T06:38:22.376Z,9.57
2019-02-20T06:43:26.368Z,10.07
2019-02-20T06:48:30.266Z,9.93
2019-02-20T06:53:34.434Z,9.70
2019-02-20T06:58:38.360Z,9.23
2019-02-20T07:03:42.797Z,10.07
2019-02-20T07:09:33.515Z,9.00
2019-02-20T07:15:08.160Z,10.43
2019-02-20T07:21:08.066Z,9.47
2019-02-20T07:26:45.073Z,9.37
2019-02-20T07:31:49.074Z,9.00
2019-02-20T07:36:52.976Z,10.30
2019-02-20T07:41:56.971Z,9.67
2019-02-20T07:47:02.458Z,10.23
2019-02-20T07:52:06.455Z,10.10
2019-02-20T07:57:10.456Z,9.87
2019-02-20T08:02:14.413Z,9.63
2019-02-20T08:07:18.436Z,8.13
2019-02-20T08:12:22.426Z,8.73
2019-02-20T08:17:26.632Z,8.43
2019-02-20T08:22:30.557Z,7.83
2019-02-20T08:27:34.482Z,9.77
2019-02-20T08:32:38.486Z,9.57
2019-02-20T08:37:42.325Z,9.13
2019-02-20T08:42:46.244Z,9.30
2019-02-20T08:47:50.558Z,9.60
2019-02-20T08:52:54.530Z,10.30
2019-02-20T08:57:58.534Z,9.07
2019-02-20T09:03:02.522Z,8.50
2019-02-20T09:08:06.434Z,8.60
2019-02-20T09:13:10.384Z,9.40
2019-02-20T09:18:14.360Z,9.33
2019-02-20T09:23:18.282Z,10.10
2019-02-20T09:28:22.969Z,9.10
2019-02-20T09:33:27.391Z,10.93
2019-02-20T09:38:31.272Z,11.63
2019-02-20T09:43:35.227Z,11.90
2019-02-20T09:48:39.232Z,12.17
2019-02-20T09:53:43.254Z,11.97
2019-02-20T09:58:47.168Z,12.37
2019-02-20T10:03:51.094Z,11.90
2019-02-20T10:08:55.145Z,12.53
2019-02-20T10:13:59.184Z,13.53
2019-02-20T10:19:03.228Z,12.63
2019-02-20T10:24:07.169Z,14.00
2019-02-20T10:29:11.166Z,12.17
2019-02-20T10:34:15.152Z,12.80
2019-02-20T10:39:19.190Z,12.10
2019-02-20T10:44:23.034Z,12.03
2019-02-20T10:49:27.223Z,12.60
2019-02-20T10:54:31.148Z,13.30
2019-02-20T10:59:35.171Z,13.17
2019-02-20T11:04:39.071Z,13.07
2019-02-20T11:09:42.992Z,12.17
2019-02-20T11:14:48.913Z,12.67
2019-02-20T11:19:52.912Z,11.67
2019-02-20T11:24:56.747Z,11.03
2019-02-20T11:30:00.842Z,10.67
2019-02-20T11:35:05.787Z,10.57
2019-02-20T11:40:10.881Z,11.33
2019-02-20T11:45:15.222Z,10.72
2019-02-20T11:50:19.379Z,10.68
2019-02-20T11:55:24.042Z,10.82
2019-02-20T12:00:28.396Z,9.80
2019-02-20T12:05:32.373Z,9.73
2019-02-20T12:10:37.329Z,9.88
2019-02-20T12:15:42.192Z,9.45
2019-02-20T12:20:46.420Z,9.25
2019-02-20T12:25:50.422Z,8.83
2019-02-20T12:30:54.404Z,8.95
2019-02-20T12:35:58.291Z,9.95
2019-02-20T12:41:02.196Z,9.25
2019-02-20T12:46:06.063Z,10.32
2019-02-20T12:51:10.207Z,10.13
2019-02-20T12:56:14.172Z,9.85
2019-02-20T13:01:18.135Z,9.38
2019-02-20T13:06:22.063Z,8.70
2019-02-20T13:11:26.252Z,9.00
2019-02-20T13:16:30.238Z,8.93
2019-02-20T13:21:34.247Z,9.65
2019-02-20T13:26:41.065Z,9.23
2019-02-20T13:31:44.896Z,8.83
2019-02-20T13:36:48.960Z,8.43
2019-02-20T13:41:52.964Z,8.48
2019-02-20T13:46:56.955Z,7.85
2019-02-20T13:52:01.244Z,7.75
2019-02-20T13:57:05.458Z,7.60
2019-02-20T14:02:11.221Z,8.75
2019-02-20T14:07:15.045Z,7.60
2019-02-20T14:12:18.947Z,7.78
2019-02-20T14:17:26.758Z,7.00
2019-02-20T14:22:28.726Z,7.33
2019-02-20T14:27:33.108Z,6.35
2019-02-20T14:32:36.968Z,7.03
2019-02-20T14:37:40.980Z,7.03
2019-02-20T14:42:45.163Z,7.67
2019-02-20T14:47:48.970Z,5.70
2019-02-20T14:52:53.480Z,5.65
2019-02-20T14:57:57.462Z,6.15
2019-02-20T15:03:01.380Z,6.67
2019-02-20T15:08:05.580Z,5.97
2019-02-20T15:13:09.708Z,7.20
2019-02-20T15:18:14.116Z,6.58
2019-02-20T15:23:18.199Z,6.90
2019-02-20T15:28:22.128Z,5.67
2019-02-20T15:33:26.249Z,5.22
2019-02-20T15:38:30.183Z,5.58
2019-02-20T15:43:34.590Z,5.75
2019-02-20T15:48:38.842Z,6.00
2019-02-20T15:53:42.965Z,6.37
2019-02-20T15:58:47.047Z,7.03
2019-02-20T16:03:50.990Z,6.67
2019-02-20T16:08:55.161Z,7.40
2019-02-20T16:14:00.818Z,7.33
2019-02-20T16:19:04.790Z,7.42
2019-02-20T16:24:08.708Z,7.03
2019-02-20T16:29:13.653Z,6.97
2019-02-20T16:34:18.069Z,7.03
2019-02-20T16:39:21.924Z,6.35
2019-02-20T16:44:26.001Z,7.60
2019-02-20T16:49:29.918Z,8.05
2019-02-20T16:54:33.992Z,7.58
2019-02-20T16:59:38.286Z,7.42
2019-02-20T17:04:42.345Z,6.75
2019-02-20T17:09:46.418Z,7.05
2019-02-20T17:14:50.582Z,7.35
2019-02-20T17:19:54.842Z,8.10
2019-02-20T17:24:59.130Z,7.70
2019-02-20T17:30:03.241Z,8.50
2019-02-20T17:35:08.955Z,9.10
2019-02-20T17:40:13.699Z,8.20
2019-02-20T17:45:17.713Z,9.28
2019-02-20T17:50:21.975Z,9.08
2019-02-20T17:55:25.983Z,9.50
2019-02-20T18:00:30.415Z,10.55
2019-02-20T18:05:34.398Z,9.78
2019-02-20T18:10:38.320Z,10.48
2019-02-20T18:15:42.363Z,10.80
2019-02-20T18:20:46.335Z,11.57
2019-02-20T18:25:50.224Z,12.10
2019-02-20T18:30:54.190Z,11.50
2019-02-20T18:35:58.105Z,11.83
2019-02-20T18:41:02.650Z,10.72
2019-02-20T18:46:06.746Z,10.60
2019-02-20T18:51:10.773Z,11.80
2019-02-20T18:56:15.106Z,11.40
2019-02-20T19:01:19.211Z,11.22
2019-02-20T19:06:23.193Z,12.13
2019-02-20T19:11:40.836Z,11.03
2019-02-20T19:17:10.080Z,11.17
2019-02-20T19:22:42.513Z,10.67
2019-02-20T19:28:18.920Z,11.10
2019-02-20T19:33:56.813Z,12.03
2019-02-20T19:39:21.962Z,11.57
2019-02-20T19:44:47.733Z,10.73
2019-02-20T19:50:14.887Z,11.23
2019-02-20T19:55:31.592Z,11.85
2019-02-20T20:01:14.678Z,12.20
2019-02-20T20:07:02.671Z,12.63
2019-02-20T20:12:44.683Z,12.00
2019-02-20T20:18:21.609Z,11.30
2019-02-20T20:23:48.645Z,12.30
2019-02-20T20:29:27.427Z,11.50
2019-02-20T20:35:34.106Z,11.77
2019-02-20T20:41:14.002Z,12.10
2019-02-20T20:46:35.264Z,12.10
2019-02-20T20:52:12.018Z,12.03
2019-02-20T20:57:23.421Z,11.57
2019-02-20T21:02:41.660Z,11.83
2019-02-20T21:08:15.883Z,11.73
2019-02-20T21:13:54.240Z,11.60
2019-02-20T21:19:31.668Z,12.07
2019-02-20T21:25:23.631Z,10.40
2019-02-20T21:31:02.020Z,11.20
2019-02-20T21:36:12.778Z,11.30
2019-02-20T21:42:02.280Z,12.10
2019-02-20T21:47:16.096Z,11.80
2019-02-20T21:53:02.410Z,12.37
2019-02-20T21:58:56.700Z,11.63
2019-02-20T22:04:38.268Z,11.17
2019-02-20T22:10:09.660Z,10.93
2019-02-20T22:15:34.964Z,12.13
2019-02-20T22:21:10.636Z,12.43
2019-02-20T22:27:14.171Z,11.80
2019-02-20T22:32:39.041Z,11.67
2019-02-20T22:38:00.036Z,10.60
2019-02-20T22:43:51.588Z,11.63
2019-02-20T22:49:28.396Z,11.30
2019-02-20T22:55:31.700Z,10.63
2019-02-20T23:01:16.540Z,11.20
2019-02-20T23:06:46.246Z,12.07
2019-02-20T23:12:14.549Z,10.60
2019-02-20T23:17:18.363Z,12.00
2019-02-20T23:22:22.265Z,12.30
2019-02-20T23:27:26.328Z,13.10
2019-02-20T23:32:30.325Z,13.40
2019-02-20T23:37:34.302Z,13.73
2019-02-20T23:42:38.766Z,14.40
2019-02-20T23:47:42.770Z,14.37
2019-02-20T23:52:47.270Z,14.43
2019-02-20T23:57:51.254Z,14.10
